createdAt,value
2019-02-04T00:00:54.129Z,15.68
2019-02-04T00:03:23.324Z,15.35
2019-02-04T00:05:52.450Z,15.58
2019-02-04T00:08:21.592Z,16.10
2019-02-04T00:10:50.717Z,15.48
2019-02-04T00:13:19.832Z,14.85
2019-02-04T00:15:49.209Z,15.98
2019-02-04T00:18:19.291Z,16.62
2019-02-04T00:20:48.433Z,16.45
2019-02-04T00:23:18.158Z,15.80
2019-02-04T00:25:47.301Z,16.52
2019-02-04T00:28:16.424Z,16.30
2019-02-04T00:30:45.557Z,15.90
2019-02-04T00:33:14.693Z,16.45
2019-02-04T00:35:43.829Z,15.95
2019-02-04T00:38:13.307Z,16.25
2019-02-04T00:40:42.433Z,16.25
2019-02-04T00:43:11.573Z,15.98
2019-02-04T00:45:40.692Z,16.05
2019-02-04T00:48:09.808Z,13.90
2019-02-04T00:50:38.946Z,15.25
2019-02-04T00:53:28.360Z,14.98
2019-02-04T00:55:57.852Z,14.87
2019-02-04T00:58:26.941Z,15.93
2019-02-04T01:00:56.357Z,14.35
2019-02-04T01:03:26.273Z,14.73
2019-02-04T01:05:55.666Z,14.98
2019-02-04T01:08:25.128Z,15.65
2019-02-04T01:10:54.266Z,14.43
2019-02-04T01:13:23.385Z,14.23
2019-02-04T01:15:52.769Z,15.78
2019-02-04T01:18:22.479Z,14.98
2019-02-04T01:20:51.596Z,15.55
2019-02-04T01:23:20.726Z,15.00
2019-02-04T01:25:49.841Z,14.38
2019-02-04T01:28:19.277Z,16.17
2019-02-04T01:30:48.652Z,15.60
2019-02-04T01:33:17.793Z,16.30
2019-02-04T01:35:46.921Z,16.12
2019-02-04T01:38:16.311Z,17.57
2019-02-04T01:40:45.425Z,17.20
2019-02-04T01:43:14.631Z,17.25
2019-02-04T01:45:44.379Z,16.93
2019-02-04T01:48:13.508Z,15.72
2019-02-04T01:50:42.631Z,16.70
2019-02-04T01:53:11.757Z,15.63
2019-02-04T01:55:40.876Z,15.85
2019-02-04T01:58:10.369Z,16.32
2019-02-04T02:00:40.229Z,16.97
2019-02-04T02:03:09.637Z,16.73
2019-02-04T02:05:38.755Z,16.17
2019-02-04T02:08:07.880Z,16.70
2019-02-04T02:10:36.997Z,17.07
2019-02-04T02:13:06.125Z,17.30
2019-02-04T02:15:35.437Z,16.97
2019-02-04T02:18:04.563Z,16.62
2019-02-04T02:20:33.956Z,17.17
2019-02-04T02:23:03.089Z,17.12
2019-02-04T02:25:32.563Z,17.32
2019-02-04T02:28:01.688Z,18.80
2019-02-04T02:30:31.642Z,19.02
2019-02-04T02:33:00.841Z,17.87
2019-02-04T02:35:30.280Z,17.48
2019-02-04T02:37:59.489Z,17.92
2019-02-04T02:40:31.310Z,17.80
2019-02-04T02:43:00.817Z,17.62
2019-02-04T02:45:29.935Z,17.57
2019-02-04T02:47:59.326Z,17.27
2019-02-04T02:50:28.510Z,17.67
2019-02-04T02:52:57.713Z,17.12
2019-02-04T02:55:27.144Z,17.70
2019-02-04T02:57:56.673Z,16.77
2019-02-04T03:00:27.554Z,16.62
2019-02-04T03:02:56.748Z,17.10
2019-02-04T03:05:25.901Z,17.52
2019-02-04T03:07:55.112Z,17.50
2019-02-04T03:10:26.774Z,16.87
2019-02-04T03:12:56.402Z,17.25
2019-02-04T03:15:25.517Z,17.02
2019-02-04T03:17:54.636Z,16.17
2019-02-04T03:20:23.764Z,15.48
2019-02-04T03:22:52.882Z,16.70
2019-02-04T03:25:22.383Z,15.35
2019-02-04T03:27:51.515Z,16.48
2019-02-04T03:30:23.224Z,16.15
2019-02-04T03:32:52.490Z,16.33
2019-02-04T03:35:21.628Z,16.35
2019-02-04T03:37:52.253Z,14.73
2019-02-04T03:40:24.334Z,15.00
2019-02-04T03:43:12.879Z,17.02
2019-02-04T03:45:42.004Z,15.83
2019-02-04T03:48:11.120Z,15.50
2019-02-04T03:50:40.244Z,16.48
2019-02-04T03:53:09.382Z,15.35
2019-02-04T03:55:38.568Z,17.27
2019-02-04T03:58:07.713Z,16.62
2019-02-04T04:00:36.909Z,16.12
2019-02-04T04:03:06.119Z,15.65
2019-02-04T04:05:35.216Z,15.88
2019-02-04T04:08:04.356Z,15.88
2019-02-04T04:10:33.561Z,16.73
2019-02-04T04:13:03.836Z,16.00
2019-02-04T04:15:32.961Z,17.30
2019-02-04T04:18:02.454Z,18.95
2019-02-04T04:20:31.576Z,18.90
2019-02-04T04:23:00.708Z,16.93
2019-02-04T04:25:31.338Z,16.80
2019-02-04T04:28:00.449Z,16.17
2019-02-04T04:30:29.667Z,15.90
2019-02-04T04:32:59.053Z,16.05
2019-02-04T04:35:28.177Z,15.38
2019-02-04T04:37:57.322Z,16.37
2019-02-04T04:40:26.469Z,16.95
2019-02-04T04:42:55.564Z,17.85
2019-02-04T04:45:26.152Z,17.35
2019-02-04T04:47:55.259Z,17.12
2019-02-04T04:50:24.372Z,16.85
2019-02-04T04:52:53.492Z,17.73
2019-02-04T04:55:26.444Z,17.98
2019-02-04T04:57:55.665Z,17.52
2019-02-04T05:00:30.009Z,17.73
2019-02-04T05:02:59.497Z,18.00
2019-02-04T05:05:28.647Z,19.23
2019-02-04T05:07:57.760Z,19.35
2019-02-04T05:10:27.206Z,20.55
2019-02-04T05:12:56.328Z,19.70
2019-02-04T05:15:29.056Z,21.12
2019-02-04T05:17:58.160Z,19.62
2019-02-04T05:20:27.288Z,21.37
2019-02-04T05:22:56.419Z,22.42
2019-02-04T05:25:25.532Z,21.07
2019-02-04T05:27:54.941Z,20.77
2019-02-04T05:30:25.212Z,21.50
2019-02-04T05:32:54.341Z,22.22
2019-02-04T05:35:23.472Z,22.48
2019-02-04T05:37:52.748Z,22.22
2019-02-04T05:40:23.431Z,22.52
2019-02-04T05:42:55.819Z,22.15
2019-02-04T05:45:24.936Z,21.10
2019-02-04T05:47:54.063Z,23.27
2019-02-04T05:50:23.175Z,19.25
2019-02-04T05:52:52.339Z,20.90
2019-02-04T05:55:30.656Z,22.58
2019-02-04T05:57:59.902Z,24.57
2019-02-04T06:00:33.448Z,21.95
2019-02-04T06:03:02.605Z,20.72
2019-02-04T06:05:31.737Z,20.00
2019-02-04T06:08:01.241Z,20.68
2019-02-04T06:10:30.363Z,30.20
2019-02-04T06:12:59.476Z,23.20
2019-02-04T06:15:28.613Z,22.02
2019-02-04T06:17:57.790Z,23.70
2019-02-04T06:20:26.902Z,22.48
2019-02-04T06:22:56.202Z,23.62
2019-02-04T06:25:25.317Z,23.80
2019-02-04T06:27:54.427Z,23.25
2019-02-04T06:30:23.541Z,23.07
2019-02-04T06:32:52.741Z,25.23
2019-02-04T06:35:21.876Z,21.82
2019-02-04T06:37:51.004Z,22.40
2019-02-04T06:40:20.113Z,23.10
2019-02-04T06:42:50.238Z,24.75
2019-02-04T06:45:19.436Z,23.07
2019-02-04T06:47:48.600Z,22.75
2019-02-04T06:50:20.224Z,24.02
2019-02-04T06:52:49.355Z,24.50
2019-02-04T06:55:27.765Z,24.32
2019-02-04T06:57:56.892Z,60.75
2019-02-04T07:00:26.009Z,45.20
2019-02-04T07:02:55.142Z,39.63
2019-02-04T07:05:24.264Z,28.57
2019-02-04T07:07:53.633Z,26.48
2019-02-04T07:10:27.078Z,25.68
2019-02-04T07:12:56.288Z,24.07
2019-02-04T07:15:25.424Z,22.27
2019-02-04T07:17:54.937Z,27.22
2019-02-04T07:20:25.515Z,20.30
2019-02-04T07:22:54.710Z,19.95
2019-02-04T07:25:23.969Z,23.12
2019-02-04T07:27:53.093Z,21.15
2019-02-04T07:30:41.648Z,27.20
2019-02-04T07:33:10.864Z,28.10
2019-02-04T07:35:40.087Z,26.33
2019-02-04T07:38:09.347Z,32.70
2019-02-04T07:40:38.829Z,34.88
2019-02-04T07:43:07.978Z,32.17
2019-02-04T07:45:37.496Z,31.82
2019-02-04T07:48:06.656Z,25.30
2019-02-04T07:50:35.785Z,24.27
2019-02-04T07:53:05.761Z,19.95
2019-02-04T07:55:34.908Z,22.15
2019-02-04T07:58:04.308Z,19.77
2019-02-04T08:00:34.588Z,20.80
2019-02-04T08:03:03.733Z,20.92
2019-02-04T08:05:32.868Z,20.35
2019-02-04T08:08:02.015Z,21.30
2019-02-04T08:10:32.773Z,20.43
2019-02-04T08:13:02.559Z,20.30
2019-02-04T08:15:36.670Z,18.05
2019-02-04T08:18:06.788Z,21.55
2019-02-04T08:20:35.929Z,20.60
2019-02-04T08:23:06.073Z,19.73
2019-02-04T08:25:35.700Z,20.57
2019-02-04T08:28:04.915Z,23.02
2019-02-04T08:30:38.748Z,22.48
2019-02-04T08:33:07.944Z,26.48
2019-02-04T08:35:37.140Z,27.95
2019-02-04T08:38:06.420Z,32.53
2019-02-04T08:40:36.120Z,24.47
2019-02-04T08:43:05.256Z,27.58
2019-02-04T08:45:34.621Z,28.57
2019-02-04T08:48:03.873Z,30.88
2019-02-04T08:50:33.353Z,27.32
2019-02-04T08:53:02.560Z,24.00
2019-02-04T08:55:31.744Z,20.55
2019-02-04T08:58:00.948Z,20.85
2019-02-04T09:00:30.148Z,20.52
2019-02-04T09:02:59.286Z,20.77
2019-02-04T09:05:28.589Z,19.17
2019-02-04T09:07:57.764Z,18.12
2019-02-04T09:10:29.031Z,19.02
2019-02-04T09:12:58.463Z,18.40
2019-02-04T09:15:27.676Z,18.17
2019-02-04T09:17:57.226Z,18.92
2019-02-04T09:20:28.006Z,18.15
2019-02-04T09:22:57.170Z,18.12
2019-02-04T09:25:27.177Z,18.17
2019-02-04T09:27:58.466Z,18.50
2019-02-04T09:30:28.460Z,18.70
2019-02-04T09:32:59.410Z,18.40
2019-02-04T09:35:28.688Z,17.60
2019-02-04T09:37:57.830Z,17.60
2019-02-04T09:40:33.073Z,17.73
2019-02-04T09:43:02.281Z,15.90
2019-02-04T09:45:31.492Z,16.07
2019-02-04T09:48:00.667Z,16.85
2019-02-04T09:50:32.471Z,15.58
2019-02-04T09:53:02.000Z,15.55
2019-02-04T09:55:34.316Z,15.45
2019-02-04T09:58:03.246Z,15.35
2019-02-04T10:00:34.449Z,15.93
2019-02-04T10:03:04.281Z,15.48
2019-02-04T10:05:33.445Z,15.72
2019-02-04T10:08:03.226Z,16.37
2019-02-04T10:10:33.111Z,15.83
2019-02-04T10:13:02.211Z,15.95
2019-02-04T10:15:34.071Z,17.00
2019-02-04T10:18:03.382Z,16.47
2019-02-04T10:20:34.482Z,15.95
2019-02-04T10:23:04.214Z,13.98
2019-02-04T10:25:36.423Z,13.98
2019-02-04T10:28:07.389Z,14.35
2019-02-04T10:30:36.636Z,14.25
2019-02-04T10:33:05.825Z,13.58
2019-02-04T10:35:35.243Z,13.60
2019-02-04T10:38:04.461Z,12.40
2019-02-04T10:40:33.593Z,13.13
2019-02-04T10:43:02.783Z,14.65
2019-02-04T10:45:32.033Z,13.72
2019-02-04T10:48:01.204Z,12.60
2019-02-04T10:50:46.308Z,13.35
2019-02-04T10:53:11.005Z,12.73
2019-02-04T10:55:40.577Z,11.88
2019-02-04T10:58:12.496Z,11.35
2019-02-04T11:00:41.738Z,11.03
2019-02-04T11:03:10.932Z,11.70
2019-02-04T11:05:41.842Z,11.73
2019-02-04T11:08:14.140Z,11.35
2019-02-04T11:10:43.565Z,11.65
2019-02-04T11:13:14.594Z,11.53
2019-02-04T11:15:44.500Z,10.18
2019-02-04T11:18:13.999Z,10.72
2019-02-04T11:20:43.273Z,11.97
2019-02-04T11:23:12.450Z,12.40
2019-02-04T11:25:41.679Z,12.18
2019-02-04T11:28:10.991Z,11.35
2019-02-04T11:30:55.637Z,12.35
2019-02-04T11:33:24.818Z,12.33
2019-02-04T11:35:54.361Z,11.90
2019-02-04T11:38:23.533Z,12.28
2019-02-04T11:40:53.385Z,12.98
2019-02-04T11:43:22.589Z,12.98
2019-02-04T11:46:11.122Z,13.08
2019-02-04T11:48:40.335Z,14.75
2019-02-04T11:51:10.158Z,14.15
2019-02-04T11:53:39.412Z,12.78
2019-02-04T11:56:08.535Z,12.85
2019-02-04T11:58:37.675Z,14.15
2019-02-04T12:01:06.860Z,14.38
2019-02-04T12:03:36.064Z,11.60
2019-02-04T12:06:05.743Z,12.78
2019-02-04T12:08:34.873Z,11.33
2019-02-04T12:11:05.397Z,11.03
2019-02-04T12:13:34.281Z,11.00
2019-02-04T12:16:03.308Z,10.05
2019-02-04T12:18:33.436Z,10.93
2019-02-04T12:21:03.030Z,10.48
2019-02-04T12:23:32.178Z,10.95
2019-02-04T12:26:01.283Z,12.93
2019-02-04T12:28:30.393Z,15.50
2019-02-04T12:30:59.504Z,27.30
2019-02-04T12:33:28.652Z,21.55
2019-02-04T12:35:58.031Z,22.77
2019-02-04T12:38:27.155Z,22.40
2019-02-04T12:40:56.273Z,14.05
2019-02-04T12:43:25.377Z,14.07
2019-02-04T12:45:55.460Z,16.87
2019-02-04T12:48:24.574Z,12.82
2019-02-04T12:50:54.183Z,13.05
2019-02-04T12:53:23.291Z,12.35
2019-02-04T12:55:52.409Z,12.20
2019-02-04T12:58:21.575Z,11.15
2019-02-04T13:00:50.708Z,11.68
2019-02-04T13:03:19.814Z,11.15
2019-02-04T13:05:53.288Z,9.38
2019-02-04T13:08:22.730Z,9.60
2019-02-04T13:10:51.879Z,9.90
2019-02-04T13:13:21.111Z,10.03
2019-02-04T13:15:50.320Z,10.35
2019-02-04T13:18:19.444Z,10.60
2019-02-04T13:20:48.558Z,12.13
2019-02-04T13:23:17.743Z,13.03
2019-02-04T13:25:46.926Z,11.48
2019-02-04T13:28:16.305Z,11.80
2019-02-04T13:30:45.513Z,11.38
2019-02-04T13:33:14.695Z,11.97
2019-02-04T13:35:43.895Z,12.10
2019-02-04T13:38:13.009Z,11.85
2019-02-04T13:40:44.472Z,11.45
2019-02-04T13:43:13.749Z,13.18
2019-02-04T13:45:42.956Z,22.48
2019-02-04T13:48:12.483Z,16.27
2019-02-04T13:50:41.655Z,13.60
2019-02-04T13:53:10.765Z,13.43
2019-02-04T13:55:40.344Z,12.70
2019-02-04T13:58:09.476Z,12.23
2019-02-04T14:00:51.690Z,12.33
2019-02-04T14:03:20.818Z,12.88
2019-02-04T14:05:50.385Z,15.58
2019-02-04T14:08:20.203Z,10.40
2019-02-04T14:10:50.421Z,9.75
2019-02-04T14:13:19.558Z,10.32
2019-02-04T14:15:48.706Z,10.80
2019-02-04T14:18:18.173Z,10.25
2019-02-04T14:20:47.291Z,10.45
2019-02-04T14:23:16.653Z,9.98
2019-02-04T14:25:45.953Z,10.30
2019-02-04T14:28:15.707Z,9.43
2019-02-04T14:30:45.114Z,9.80
2019-02-04T14:33:15.329Z,9.13
2019-02-04T14:35:44.856Z,9.38
2019-02-04T14:38:14.713Z,9.68
2019-02-04T14:40:44.013Z,9.70
2019-02-04T14:43:19.904Z,7.83
2019-02-04T14:46:23.933Z,9.30
2019-02-04T14:48:59.725Z,8.98
2019-02-04T14:51:34.878Z,8.83
2019-02-04T14:54:38.115Z,10.18
2019-02-04T14:57:40.975Z,9.15
2019-02-04T15:00:45.163Z,10.18
2019-02-04T15:03:23.748Z,9.20
2019-02-04T15:05:56.734Z,10.48
2019-02-04T15:08:50.213Z,9.43
2019-02-04T15:11:25.743Z,10.40
2019-02-04T15:17:07.545Z,10.10
2019-02-04T15:20:02.639Z,10.15
2019-02-04T15:22:37.947Z,10.10
2019-02-04T15:25:26.833Z,9.98
2019-02-04T15:28:05.166Z,11.90
2019-02-04T15:30:43.128Z,13.72
2019-02-04T15:33:42.243Z,11.90
2019-02-04T15:36:20.250Z,10.65
2019-02-04T15:38:58.445Z,12.15
2019-02-04T15:41:32.945Z,12.68
2019-02-04T15:44:25.189Z,18.23
2019-02-04T15:49:50.472Z,17.15
2019-02-04T15:52:10.741Z,12.60
2019-02-04T15:54:39.875Z,11.28
2019-02-04T15:57:08.993Z,11.97
2019-02-04T15:59:38.498Z,20.25
2019-02-04T16:02:07.640Z,12.10
2019-02-04T16:04:36.756Z,10.53
2019-02-04T16:07:07.221Z,11.45
2019-02-04T16:09:36.363Z,12.03
2019-02-04T16:12:05.524Z,10.18
2019-02-04T16:14:35.249Z,14.75
2019-02-04T16:17:05.007Z,14.50
2019-02-04T16:19:34.215Z,17.20
2019-02-04T16:22:03.428Z,15.00
2019-02-04T16:24:32.555Z,12.00
2019-02-04T16:27:01.676Z,20.48
2019-02-04T16:29:31.047Z,43.42
2019-02-04T16:32:00.176Z,25.00
2019-02-04T16:34:29.299Z,15.43
2019-02-04T16:36:58.419Z,16.60
2019-02-04T16:39:28.749Z,41.90
2019-02-04T16:41:57.874Z,31.25
2019-02-04T16:44:27.677Z,16.02
2019-02-04T16:46:56.899Z,19.82
2019-02-04T16:49:26.081Z,17.87
2019-02-04T16:51:55.220Z,17.95
2019-02-04T16:54:24.397Z,20.48
2019-02-04T16:56:53.513Z,20.12
2019-02-04T16:59:22.924Z,19.12
2019-02-04T17:01:52.035Z,13.72
2019-02-04T17:04:21.183Z,13.15
2019-02-04T17:06:58.052Z,14.40
2019-02-04T17:09:27.192Z,15.58
2019-02-04T17:11:56.785Z,17.02
2019-02-04T17:14:26.872Z,17.77
2019-02-04T17:16:56.047Z,16.23
2019-02-04T17:19:25.184Z,15.03
2019-02-04T17:21:54.318Z,14.13
2019-02-04T17:24:23.495Z,13.30
2019-02-04T17:26:53.002Z,15.60
2019-02-04T17:29:22.450Z,17.60
2019-02-04T17:31:52.647Z,14.63
2019-02-04T17:34:21.772Z,14.70
2019-02-04T17:36:50.901Z,14.47
2019-02-04T17:39:20.020Z,12.90
2019-02-04T17:41:49.524Z,12.40
2019-02-04T17:44:18.631Z,14.45
2019-02-04T17:46:47.921Z,13.53
2019-02-04T17:49:17.039Z,15.13
2019-02-04T17:51:46.160Z,14.87
2019-02-04T17:54:15.352Z,16.42
2019-02-04T17:56:44.865Z,16.57
2019-02-04T17:59:13.981Z,15.78
2019-02-04T18:01:43.307Z,14.25
2019-02-04T18:04:12.527Z,14.03
2019-02-04T18:06:41.750Z,14.68
2019-02-04T18:09:10.939Z,14.55
2019-02-04T18:11:40.456Z,13.85
2019-02-04T18:14:09.652Z,16.62
2019-02-04T18:16:38.952Z,16.05
2019-02-04T18:19:08.064Z,16.35
2019-02-04T18:21:37.213Z,21.52
2019-02-04T18:24:06.337Z,17.30
2019-02-04T18:26:35.531Z,16.65
2019-02-04T18:29:04.643Z,15.68
2019-02-04T18:31:34.116Z,15.32
2019-02-04T18:34:03.365Z,17.30
2019-02-04T18:36:32.497Z,15.93
2019-02-04T18:39:01.986Z,16.95
2019-02-04T18:41:32.741Z,18.23
2019-02-04T18:44:01.875Z,19.67
2019-02-04T18:46:31.433Z,20.17
2019-02-04T18:49:00.556Z,20.08
2019-02-04T18:51:29.668Z,20.05
2019-02-04T18:53:58.995Z,20.52
2019-02-04T18:56:28.203Z,18.37
2019-02-04T18:58:57.401Z,18.50
2019-02-04T19:01:26.537Z,19.12
2019-02-04T19:03:55.677Z,19.27
2019-02-04T19:06:24.892Z,19.17
2019-02-04T19:08:54.016Z,18.92
2019-02-04T19:11:23.157Z,21.23
2019-02-04T19:13:52.304Z,19.48
2019-02-04T19:16:21.469Z,20.82
2019-02-04T19:18:50.639Z,20.90
2019-02-04T19:21:19.762Z,22.60
2019-02-04T19:23:49.006Z,23.47
2019-02-04T19:26:18.113Z,23.95
2019-02-04T19:28:47.264Z,22.45
2019-02-04T19:31:16.472Z,23.05
2019-02-04T19:33:45.599Z,23.77
2019-02-04T19:36:14.848Z,23.27
2019-02-04T19:38:44.257Z,24.90
2019-02-04T19:41:13.372Z,24.35
2019-02-04T19:43:42.509Z,23.40
2019-02-04T19:46:11.627Z,24.35
2019-02-04T19:48:40.762Z,24.32
2019-02-04T19:51:09.934Z,25.05
2019-02-04T19:53:39.403Z,23.40
2019-02-04T19:56:08.528Z,22.95
2019-02-04T19:58:37.698Z,20.97
2019-02-04T20:01:06.852Z,21.62
2019-02-04T20:03:37.128Z,20.40
2019-02-04T20:06:06.425Z,20.70
2019-02-04T20:08:35.840Z,22.65
2019-02-04T20:11:04.992Z,22.20
2019-02-04T20:13:35.980Z,22.13
2019-02-04T20:16:05.110Z,22.85
2019-02-04T20:18:34.225Z,20.43
2019-02-04T20:21:03.367Z,20.17
2019-02-04T20:23:32.776Z,17.12
2019-02-04T20:26:01.930Z,17.45
2019-02-04T20:28:31.053Z,17.02
2019-02-04T20:31:00.260Z,16.60
2019-02-04T20:33:29.372Z,15.60
2019-02-04T20:35:58.852Z,18.30
2019-02-04T20:38:28.241Z,19.10
2019-02-04T20:40:57.362Z,19.62
2019-02-04T20:43:26.475Z,17.27
2019-02-04T20:45:55.681Z,17.90
2019-02-04T20:48:24.820Z,19.48
2019-02-04T20:50:53.956Z,17.75
2019-02-04T20:53:23.580Z,17.32
2019-02-04T20:55:52.710Z,18.52
2019-02-04T20:58:22.025Z,21.80
2019-02-04T21:00:51.310Z,19.37
2019-02-04T21:03:21.428Z,17.80
2019-02-04T21:05:50.553Z,18.40
2019-02-04T21:08:20.177Z,18.95
2019-02-04T21:10:49.343Z,19.55
2019-02-04T21:13:18.471Z,17.00
2019-02-04T21:15:59.594Z,18.98
2019-02-04T21:18:28.715Z,16.20
2019-02-04T21:20:58.223Z,17.80
2019-02-04T21:23:27.410Z,17.45
2019-02-04T21:25:56.595Z,20.08
2019-02-04T21:28:25.768Z,18.57
2019-02-04T21:30:54.906Z,18.12
2019-02-04T21:33:24.054Z,19.32
2019-02-04T21:36:06.837Z,17.10
2019-02-04T21:38:36.586Z,16.60
2019-02-04T21:41:06.709Z,18.80
2019-02-04T21:43:37.811Z,53.75
2019-02-04T21:46:07.391Z,41.13
2019-02-04T21:48:39.155Z,29.50
2019-02-04T21:51:08.797Z,18.73
2019-02-04T21:53:37.911Z,19.55
2019-02-04T21:56:07.105Z,16.20
2019-02-04T21:58:36.281Z,16.40
2019-02-04T22:01:06.792Z,20.57
2019-02-04T22:03:36.049Z,19.60
2019-02-04T22:06:05.595Z,19.65
2019-02-04T22:08:35.273Z,13.70
2019-02-04T22:11:04.798Z,16.02
2019-02-04T22:13:34.236Z,18.32
2019-02-04T22:16:03.833Z,16.97
2019-02-04T22:18:33.011Z,16.37
2019-02-04T22:21:02.160Z,15.65
2019-02-04T22:23:31.702Z,16.17
2019-02-04T22:26:00.813Z,16.07
2019-02-04T22:28:31.576Z,16.50
2019-02-04T22:31:01.124Z,16.00
2019-02-04T22:33:30.285Z,16.60
2019-02-04T22:35:59.664Z,16.07
2019-02-04T22:38:28.797Z,15.13
2019-02-04T22:40:57.913Z,16.48
2019-02-04T22:43:27.068Z,17.65
2019-02-04T22:45:56.183Z,16.87
2019-02-04T22:48:27.314Z,16.17
2019-02-04T22:50:56.689Z,17.12
2019-02-04T22:53:26.085Z,15.45
2019-02-04T22:55:55.196Z,16.23
2019-02-04T22:58:24.341Z,17.55
2019-02-04T23:01:05.181Z,17.77
2019-02-04T23:03:34.651Z,17.98
2019-02-04T23:06:05.455Z,18.10
2019-02-04T23:08:34.674Z,17.07
2019-02-04T23:11:03.795Z,19.92
2019-02-04T23:13:33.248Z,16.77
2019-02-04T23:16:02.364Z,16.30
2019-02-04T23:18:31.495Z,15.30
2019-02-04T23:21:00.721Z,16.50
2019-02-04T23:23:29.955Z,16.00
2019-02-04T23:25:59.197Z,14.65
2019-02-04T23:28:28.893Z,15.40
2019-02-04T23:30:58.260Z,14.58
2019-02-04T23:33:34.192Z,15.13
2019-02-04T23:35:58.455Z,14.28
2019-02-04T23:38:27.997Z,14.33
2019-02-04T23:40:57.406Z,15.28
2019-02-04T23:43:26.720Z,13.48
2019-02-04T23:45:55.827Z,13.70
2019-02-04T23:48:24.964Z,14.70
2019-02-04T23:50:54.089Z,15.83
2019-02-04T23:53:23.213Z,14.80
2019-02-04T23:55:54.720Z,17.02
2019-02-04T23:58:42.592Z,16.02
